sensor_id;sensor_type;location;lat;lon;timestamp;P1;durP1;ratioP1;P2;durP2;ratioP2
53959;SDS011;39866;48.638;-2.020;2023-10-13T00:02:06;10.10;;;4.30;;
53959;SDS011;39866;48.638;-2.020;2023-10-13T00:04:32;8.95;;;4.43;;
53959;SDS011;39866;48.638;-2.020;2023-10-13T00:07:01;8.18;;;3.88;;
53959;SDS011;39866;48.638;-2.020;2023-10-13T00:09:27;12.07;;;4.55;;
53959;SDS011;39866;48.638;-2.020;2023-10-13T00:12:02;11.60;;;4.43;;
53959;SDS011;39866;48.638;-2.020;2023-10-13T00:14:38;6.45;;;4.40;;
53959;SDS011;39866;48.638;-2.020;2023-10-13T00:17:05;9.88;;;4.53;;
53959;SDS011;39866;48.638;-2.020;2023-10-13T00:19:36;8.73;;;4.50;;
53959;SDS011;39866;48.638;-2.020;2023-10-13T00:22:04;10.48;;;4.50;;
53959;SDS011;39866;48.638;-2.020;2023-10-13T00:24:34;11.25;;;4.90;;
53959;SDS011;39866;48.638;-2.020;2023-10-13T00:27:07;8.88;;;4.22;;
53959;SDS011;39866;48.638;-2.020;2023-10-13T00:30:04;8.60;;;4.50;;
53959;SDS011;39866;48.638;-2.020;2023-10-13T00:32:51;11.13;;;4.47;;
53959;SDS011;39866;48.638;-2.020;2023-10-13T00:35:23;10.57;;;4.75;;
53959;SDS011;39866;48.638;-2.020;2023-10-13T00:37:53;7.20;;;4.50;;
53959;SDS011;39866;48.638;-2.020;2023-10-13T00:40:22;9.85;;;4.75;;
53959;SDS011;39866;48.638;-2.020;2023-10-13T00:43:01;8.70;;;4.43;;
53959;SDS011;39866;48.638;-2.020;2023-10-13T00:45:45;10.80;;;4.63;;
53959;SDS011;39866;48.638;-2.020;2023-10-13T00:48:30;10.38;;;4.90;;
53959;SDS011;39866;48.638;-2.020;2023-10-13T00:50:59;10.05;;;4.50;;
53959;SDS011;39866;48.638;-2.020;2023-10-13T00:53:37;9.70;;;4.40;;
53959;SDS011;39866;48.638;-2.020;2023-10-13T00:56:09;8.40;;;4.50;;
53959;SDS011;39866;48.638;-2.020;2023-10-13T00:58:43;10.15;;;4.82;;
53959;SDS011;39866;48.638;-2.020;2023-10-13T01:01:11;10.93;;;4.78;;
53959;SDS011;39866;48.638;-2.020;2023-10-13T01:03:46;9.43;;;4.82;;
53959;SDS011;39866;48.638;-2.020;2023-10-13T01:06:20;9.88;;;4.30;;
53959;SDS011;39866;48.638;-2.020;2023-10-13T01:11:42;11.43;;;5.13;;
53959;SDS011;39866;48.638;-2.020;2023-10-13T01:14:20;11.88;;;4.85;;
53959;SDS011;39866;48.638;-2.020;2023-10-13T01:16:48;11.07;;;4.25;;
53959;SDS011;39866;48.638;-2.020;2023-10-13T01:19:18;11.05;;;4.90;;
53959;SDS011;39866;48.638;-2.020;2023-10-13T01:21:47;7.80;;;4.40;;
53959;SDS011;39866;48.638;-2.020;2023-10-13T01:24:12;8.48;;;4.45;;
53959;SDS011;39866;48.638;-2.020;2023-10-13T01:26:43;11.15;;;4.68;;
53959;SDS011;39866;48.638;-2.020;2023-10-13T01:29:08;11.55;;;5.13;;
53959;SDS011;39866;48.638;-2.020;2023-10-13T01:31:44;11.25;;;4.80;;
53959;SDS011;39866;48.638;-2.020;2023-10-13T01:34:14;14.65;;;5.25;;
53959;SDS011;39866;48.638;-2.020;2023-10-13T01:39:19;12.73;;;4.40;;
53959;SDS011;39866;48.638;-2.020;2023-10-13T01:41:46;10.73;;;5.03;;
53959;SDS011;39866;48.638;-2.020;2023-10-13T01:44:18;12.35;;;5.07;;
53959;SDS011;39866;48.638;-2.020;2023-10-13T01:46:45;12.45;;;5.55;;
53959;SDS011;39866;48.638;-2.020;2023-10-13T01:49:12;15.90;;;5.57;;
53959;SDS011;39866;48.638;-2.020;2023-10-13T01:51:38;15.13;;;5.13;;
53959;SDS011;39866;48.638;-2.020;2023-10-13T01:54:04;17.17;;;5.70;;
53959;SDS011;39866;48.638;-2.020;2023-10-13T01:56:34;11.60;;;5.53;;
53959;SDS011;39866;48.638;-2.020;2023-10-13T02:01:34;13.07;;;5.70;;
53959;SDS011;39866;48.638;-2.020;2023-10-13T02:04:00;11.38;;;5.60;;
53959;SDS011;39866;48.638;-2.020;2023-10-13T02:06:29;13.48;;;5.75;;
53959;SDS011;39866;48.638;-2.020;2023-10-13T02:09:01;9.80;;;5.28;;
53959;SDS011;39866;48.638;-2.020;2023-10-13T02:11:36;10.75;;;5.18;;
53959;SDS011;39866;48.638;-2.020;2023-10-13T02:14:03;15.90;;;5.00;;
53959;SDS011;39866;48.638;-2.020;2023-10-13T02:16:28;10.38;;;5.30;;
53959;SDS011;39866;48.638;-2.020;2023-10-13T02:18:56;12.40;;;5.93;;
53959;SDS011;39866;48.638;-2.020;2023-10-13T02:21:22;12.98;;;5.80;;
53959;SDS011;39866;48.638;-2.020;2023-10-13T02:26:25;13.43;;;5.70;;
53959;SDS011;39866;48.638;-2.020;2023-10-13T02:29:00;12.43;;;5.32;;
53959;SDS011;39866;48.638;-2.020;2023-10-13T02:31:32;15.48;;;5.47;;
53959;SDS011;39866;48.638;-2.020;2023-10-13T02:33:58;11.27;;;5.50;;
53959;SDS011;39866;48.638;-2.020;2023-10-13T02:36:25;13.68;;;5.43;;
53959;SDS011;39866;48.638;-2.020;2023-10-13T02:39:01;11.18;;;5.15;;
53959;SDS011;39866;48.638;-2.020;2023-10-13T02:41:32;11.98;;;5.60;;
53959;SDS011;39866;48.638;-2.020;2023-10-13T02:44:01;11.70;;;5.38;;
53959;SDS011;39866;48.638;-2.020;2023-10-13T02:46:30;12.40;;;5.82;;
53959;SDS011;39866;48.638;-2.020;2023-10-13T02:48:56;10.02;;;5.47;;
53959;SDS011;39866;48.638;-2.020;2023-10-13T02:51:27;11.38;;;5.55;;
53959;SDS011;39866;48.638;-2.020;2023-10-13T02:54:02;16.55;;;6.55;;
53959;SDS011;39866;48.638;-2.020;2023-10-13T02:56:38;12.05;;;6.25;;
53959;SDS011;39866;48.638;-2.020;2023-10-13T02:59:25;14.55;;;5.20;;
53959;SDS011;39866;48.638;-2.020;2023-10-13T03:02:11;14.15;;;5.78;;
53959;SDS011;39866;48.638;-2.020;2023-10-13T03:04:52;12.82;;;6.15;;
53959;SDS011;39866;48.638;-2.020;2023-10-13T03:07:34;10.52;;;6.10;;
53959;SDS011;39866;48.638;-2.020;2023-10-13T03:10:02;9.85;;;5.50;;
53959;SDS011;39866;48.638;-2.020;2023-10-13T03:12:40;15.90;;;5.45;;
53959;SDS011;39866;48.638;-2.020;2023-10-13T03:15:06;13.38;;;5.65;;
53959;SDS011;39866;48.638;-2.020;2023-10-13T03:17:58;13.25;;;5.75;;
53959;SDS011;39866;48.638;-2.020;2023-10-13T03:20:23;13.63;;;5.43;;
53959;SDS011;39866;48.638;-2.020;2023-10-13T03:22:55;14.32;;;6.00;;
53959;SDS011;39866;48.638;-2.020;2023-10-13T03:25:20;12.07;;;5.97;;
53959;SDS011;39866;48.638;-2.020;2023-10-13T03:27:54;11.40;;;6.00;;
53959;SDS011;39866;48.638;-2.020;2023-10-13T03:30:20;11.30;;;5.75;;
53959;SDS011;39866;48.638;-2.020;2023-10-13T03:32:46;9.63;;;4.68;;
53959;SDS011;39866;48.638;-2.020;2023-10-13T03:35:19;10.68;;;5.80;;
53959;SDS011;39866;48.638;-2.020;2023-10-13T03:37:56;12.57;;;5.72;;
53959;SDS011;39866;48.638;-2.020;2023-10-13T03:40:23;10.25;;;5.63;;
53959;SDS011;39866;48.638;-2.020;2023-10-13T03:45:31;9.50;;;5.20;;
53959;SDS011;39866;48.638;-2.020;2023-10-13T03:48:13;8.88;;;5.78;;
53959;SDS011;39866;48.638;-2.020;2023-10-13T03:50:58;12.02;;;6.05;;
53959;SDS011;39866;48.638;-2.020;2023-10-13T03:53:29;11.90;;;5.88;;
53959;SDS011;39866;48.638;-2.020;2023-10-13T03:55:59;10.27;;;5.40;;
53959;SDS011;39866;48.638;-2.020;2023-10-13T03:58:37;8.40;;;5.13;;
53959;SDS011;39866;48.638;-2.020;2023-10-13T04:01:06;11.80;;;6.00;;
53959;SDS011;39866;48.638;-2.020;2023-10-13T04:03:32;9.95;;;5.65;;
53959;SDS011;39866;48.638;-2.020;2023-10-13T04:06:21;11.35;;;6.15;;
53959;SDS011;39866;48.638;-2.020;2023-10-13T04:09:07;10.98;;;5.90;;
53959;SDS011;39866;48.638;-2.020;2023-10-13T04:11:51;11.50;;;5.95;;
53959;SDS011;39866;48.638;-2.020;2023-10-13T04:14:28;11.65;;;5.78;;
53959;SDS011;39866;48.638;-2.020;2023-10-13T04:17:19;9.68;;;5.85;;
53959;SDS011;39866;48.638;-2.020;2023-10-13T04:19:55;12.80;;;6.50;;
53959;SDS011;39866;48.638;-2.020;2023-10-13T04:22:32;13.02;;;6.10;;
53959;SDS011;39866;48.638;-2.020;2023-10-13T04:25:13;11.68;;;6.15;;
53959;SDS011;39866;48.638;-2.020;2023-10-13T04:28:21;14.00;;;6.38;;
53959;SDS011;39866;48.638;-2.020;2023-10-13T04:30:52;12.95;;;6.22;;
53959;SDS011;39866;48.638;-2.020;2023-10-13T04:33:20;10.45;;;6.03;;
53959;SDS011;39866;48.638;-2.020;2023-10-13T04:38:38;8.23;;;5.72;;
53959;SDS011;39866;48.638;-2.020;2023-10-13T04:41:21;12.43;;;5.90;;
53959;SDS011;39866;48.638;-2.020;2023-10-13T04:43:49;9.43;;;5.85;;
53959;SDS011;39866;48.638;-2.020;2023-10-13T04:46:21;13.10;;;5.80;;
53959;SDS011;39866;48.638;-2.020;2023-10-13T04:49:00;10.93;;;5.93;;
53959;SDS011;39866;48.638;-2.020;2023-10-13T04:51:35;10.32;;;6.00;;
53959;SDS011;39866;48.638;-2.020;2023-10-13T04:54:28;12.18;;;6.18;;
53959;SDS011;39866;48.638;-2.020;2023-10-13T04:57:12;10.13;;;6.05;;
53959;SDS011;39866;48.638;-2.020;2023-10-13T04:59:44;14.48;;;6.82;;
53959;SDS011;39866;48.638;-2.020;2023-10-13T05:02:28;12.52;;;6.30;;
53959;SDS011;39866;48.638;-2.020;2023-10-13T05:05:10;15.25;;;6.65;;
53959;SDS011;39866;48.638;-2.020;2023-10-13T05:07:40;14.52;;;6.43;;
53959;SDS011;39866;48.638;-2.020;2023-10-13T05:10:25;14.40;;;6.35;;
53959;SDS011;39866;48.638;-2.020;2023-10-13T05:13:08;13.82;;;7.40;;
53959;SDS011;39866;48.638;-2.020;2023-10-13T05:18:36;17.53;;;7.27;;
53959;SDS011;39866;48.638;-2.020;2023-10-13T05:21:20;16.60;;;7.35;;
53959;SDS011;39866;48.638;-2.020;2023-10-13T05:24:05;18.48;;;7.30;;
53959;SDS011;39866;48.638;-2.020;2023-10-13T05:26:50;18.63;;;7.32;;
53959;SDS011;39866;48.638;-2.020;2023-10-13T05:29:38;12.07;;;7.80;;
53959;SDS011;39866;48.638;-2.020;2023-10-13T05:32:22;15.70;;;7.63;;
53959;SDS011;39866;48.638;-2.020;2023-10-13T05:35:06;15.98;;;7.30;;
53959;SDS011;39866;48.638;-2.020;2023-10-13T05:37:50;13.15;;;7.57;;
53959;SDS011;39866;48.638;-2.020;2023-10-13T05:40:34;16.73;;;8.07;;
53959;SDS011;39866;48.638;-2.020;2023-10-13T05:43:25;13.43;;;7.63;;
53959;SDS011;39866;48.638;-2.020;2023-10-13T05:48:50;17.88;;;7.57;;
53959;SDS011;39866;48.638;-2.020;2023-10-13T05:51:30;16.27;;;8.27;;
53959;SDS011;39866;48.638;-2.020;2023-10-13T05:54:03;17.25;;;8.85;;
53959;SDS011;39866;48.638;-2.020;2023-10-13T05:56:41;19.88;;;9.15;;
53959;SDS011;39866;48.638;-2.020;2023-10-13T05:59:33;16.85;;;8.45;;
53959;SDS011;39866;48.638;-2.020;2023-10-13T06:02:19;17.65;;;8.15;;
53959;SDS011;39866;48.638;-2.020;2023-10-13T06:05:10;18.10;;;8.75;;
53959;SDS011;39866;48.638;-2.020;2023-10-13T06:07:54;23.23;;;9.20;;
53959;SDS011;39866;48.638;-2.020;2023-10-13T06:10:39;20.42;;;8.45;;
53959;SDS011;39866;48.638;-2.020;2023-10-13T06:13:24;20.35;;;8.57;;
53959;SDS011;39866;48.638;-2.020;2023-10-13T06:16:11;17.25;;;7.70;;
53959;SDS011;39866;48.638;-2.020;2023-10-13T06:18:57;19.40;;;8.32;;
53959;SDS011;39866;48.638;-2.020;2023-10-13T06:21:40;18.52;;;8.32;;
53959;SDS011;39866;48.638;-2.020;2023-10-13T06:24:25;19.30;;;8.02;;
53959;SDS011;39866;48.638;-2.020;2023-10-13T06:27:09;18.60;;;8.10;;
53959;SDS011;39866;48.638;-2.020;2023-10-13T06:29:53;19.38;;;8.25;;
53959;SDS011;39866;48.638;-2.020;2023-10-13T06:32:22;17.38;;;8.65;;
53959;SDS011;39866;48.638;-2.020;2023-10-13T06:34:57;17.45;;;7.90;;
53959;SDS011;39866;48.638;-2.020;2023-10-13T06:37:26;21.73;;;7.70;;
53959;SDS011;39866;48.638;-2.020;2023-10-13T06:39:56;18.13;;;7.80;;
53959;SDS011;39866;48.638;-2.020;2023-10-13T06:42:25;23.67;;;8.90;;
53959;SDS011;39866;48.638;-2.020;2023-10-13T06:44:57;16.20;;;8.25;;
53959;SDS011;39866;48.638;-2.020;2023-10-13T06:47:25;19.85;;;8.38;;
53959;SDS011;39866;48.638;-2.020;2023-10-13T06:49:52;17.73;;;8.77;;
53959;SDS011;39866;48.638;-2.020;2023-10-13T06:52:19;19.08;;;8.48;;
53959;SDS011;39866;48.638;-2.020;2023-10-13T06:54:49;19.25;;;9.15;;
53959;SDS011;39866;48.638;-2.020;2023-10-13T06:57:15;18.25;;;8.15;;
53959;SDS011;39866;48.638;-2.020;2023-10-13T06:59:45;18.27;;;8.18;;
53959;SDS011;39866;48.638;-2.020;2023-10-13T07:02:13;20.65;;;8.63;;
53959;SDS011;39866;48.638;-2.020;2023-10-13T07:04:48;20.38;;;8.13;;
53959;SDS011;39866;48.638;-2.020;2023-10-13T07:07:22;19.25;;;8.55;;
53959;SDS011;39866;48.638;-2.020;2023-10-13T07:09:48;21.20;;;8.07;;
53959;SDS011;39866;48.638;-2.020;2023-10-13T07:12:14;18.38;;;8.25;;
53959;SDS011;39866;48.638;-2.020;2023-10-13T07:14:51;21.80;;;8.48;;
53959;SDS011;39866;48.638;-2.020;2023-10-13T07:17:21;22.08;;;8.13;;
53959;SDS011;39866;48.638;-2.020;2023-10-13T07:19:53;18.75;;;8.45;;
53959;SDS011;39866;48.638;-2.020;2023-10-13T07:22:19;18.88;;;7.55;;
53959;SDS011;39866;48.638;-2.020;2023-10-13T07:24:46;16.38;;;7.38;;
53959;SDS011;39866;48.638;-2.020;2023-10-13T07:27:18;19.48;;;8.45;;
53959;SDS011;39866;48.638;-2.020;2023-10-13T07:32:24;23.02;;;7.97;;
53959;SDS011;39866;48.638;-2.020;2023-10-13T07:34:53;21.30;;;7.68;;
53959;SDS011;39866;48.638;-2.020;2023-10-13T07:37:21;19.42;;;8.43;;
53959;SDS011;39866;48.638;-2.020;2023-10-13T07:39:50;19.38;;;7.85;;
53959;SDS011;39866;48.638;-2.020;2023-10-13T07:42:15;15.93;;;7.72;;
53959;SDS011;39866;48.638;-2.020;2023-10-13T07:44:44;22.90;;;8.38;;
53959;SDS011;39866;48.638;-2.020;2023-10-13T07:47:13;17.88;;;7.78;;
53959;SDS011;39866;48.638;-2.020;2023-10-13T07:49:39;21.52;;;7.78;;
53959;SDS011;39866;48.638;-2.020;2023-10-13T07:52:06;20.02;;;7.80;;
53959;SDS011;39866;48.638;-2.020;2023-10-13T07:54:45;20.75;;;7.70;;
53959;SDS011;39866;48.638;-2.020;2023-10-13T07:57:29;14.80;;;7.40;;
53959;SDS011;39866;48.638;-2.020;2023-10-13T07:59:55;21.85;;;7.80;;
53959;SDS011;39866;48.638;-2.020;2023-10-13T08:02:34;20.63;;;7.85;;
53959;SDS011;39866;48.638;-2.020;2023-10-13T08:05:15;17.23;;;7.57;;
53959;SDS011;39866;48.638;-2.020;2023-10-13T08:07:54;20.90;;;7.43;;
53959;SDS011;39866;48.638;-2.020;2023-10-13T08:10:21;16.00;;;8.27;;
53959;SDS011;39866;48.638;-2.020;2023-10-13T08:15:21;22.33;;;8.10;;
53959;SDS011;39866;48.638;-2.020;2023-10-13T08:17:56;17.58;;;7.55;;
53959;SDS011;39866;48.638;-2.020;2023-10-13T08:20:23;15.75;;;7.03;;
53959;SDS011;39866;48.638;-2.020;2023-10-13T08:22:51;21.02;;;8.05;;
53959;SDS011;39866;48.638;-2.020;2023-10-13T08:25:35;19.50;;;7.32;;
53959;SDS011;39866;48.638;-2.020;2023-10-13T08:31:03;24.00;;;8.85;;
53959;SDS011;39866;48.638;-2.020;2023-10-13T08:33:39;15.98;;;7.43;;
53959;SDS011;39866;48.638;-2.020;2023-10-13T08:36:11;16.85;;;7.60;;
53959;SDS011;39866;48.638;-2.020;2023-10-13T08:38:56;19.75;;;7.63;;
53959;SDS011;39866;48.638;-2.020;2023-10-13T08:41:24;17.80;;;7.22;;
53959;SDS011;39866;48.638;-2.020;2023-10-13T08:43:54;19.35;;;7.72;;
53959;SDS011;39866;48.638;-2.020;2023-10-13T08:46:28;17.25;;;7.07;;
53959;SDS011;39866;48.638;-2.020;2023-10-13T08:49:03;18.58;;;7.22;;
53959;SDS011;39866;48.638;-2.020;2023-10-13T08:51:42;22.75;;;7.90;;
53959;SDS011;39866;48.638;-2.020;2023-10-13T08:54:11;20.23;;;7.88;;
53959;SDS011;39866;48.638;-2.020;2023-10-13T08:56:45;17.13;;;6.82;;
53959;SDS011;39866;48.638;-2.020;2023-10-13T08:59:34;18.45;;;6.50;;
53959;SDS011;39866;48.638;-2.020;2023-10-13T09:02:18;18.17;;;6.20;;
53959;SDS011;39866;48.638;-2.020;2023-10-13T09:04:47;14.68;;;6.22;;
53959;SDS011;39866;48.638;-2.020;2023-10-13T09:07:24;19.02;;;6.25;;
53959;SDS011;39866;48.638;-2.020;2023-10-13T09:09:50;25.00;;;7.63;;
53959;SDS011;39866;48.638;-2.020;2023-10-13T09:12:22;14.68;;;6.65;;
53959;SDS011;39866;48.638;-2.020;2023-10-13T09:15:02;20.77;;;6.63;;
53959;SDS011;39866;48.638;-2.020;2023-10-13T09:17:42;19.85;;;6.07;;
53959;SDS011;39866;48.638;-2.020;2023-10-13T09:20:28;17.95;;;5.60;;
53959;SDS011;39866;48.638;-2.020;2023-10-13T09:23:11;15.82;;;5.60;;
53959;SDS011;39866;48.638;-2.020;2023-10-13T09:25:45;16.40;;;6.13;;
53959;SDS011;39866;48.638;-2.020;2023-10-13T09:28:22;15.13;;;5.45;;
53959;SDS011;39866;48.638;-2.020;2023-10-13T09:30:53;16.17;;;5.60;;
53959;SDS011;39866;48.638;-2.020;2023-10-13T09:33:24;16.80;;;5.70;;
53959;SDS011;39866;48.638;-2.020;2023-10-13T09:36:15;14.73;;;5.40;;
53959;SDS011;39866;48.638;-2.020;2023-10-13T09:38:42;18.90;;;5.78;;
53959;SDS011;39866;48.638;-2.020;2023-10-13T09:41:28;15.45;;;5.72;;
53959;SDS011;39866;48.638;-2.020;2023-10-13T09:43:57;16.45;;;5.50;;
53959;SDS011;39866;48.638;-2.020;2023-10-13T09:46:23;16.77;;;5.32;;
53959;SDS011;39866;48.638;-2.020;2023-10-13T09:49:02;15.07;;;5.05;;
53959;SDS011;39866;48.638;-2.020;2023-10-13T09:51:39;14.70;;;5.13;;
53959;SDS011;39866;48.638;-2.020;2023-10-13T09:56:55;13.63;;;4.65;;
53959;SDS011;39866;48.638;-2.020;2023-10-13T09:59:35;16.42;;;4.97;;
53959;SDS011;39866;48.638;-2.020;2023-10-13T10:02:13;13.68;;;5.50;;
53959;SDS011;39866;48.638;-2.020;2023-10-13T10:04:50;18.08;;;5.22;;
53959;SDS011;39866;48.638;-2.020;2023-10-13T10:07:27;14.02;;;4.85;;
53959;SDS011;39866;48.638;-2.020;2023-10-13T10:09:57;12.77;;;4.55;;
53959;SDS011;39866;48.638;-2.020;2023-10-13T10:15:34;16.15;;;4.93;;
53959;SDS011;39866;48.638;-2.020;2023-10-13T10:18:17;15.88;;;5.25;;
53959;SDS011;39866;48.638;-2.020;2023-10-13T10:20:44;12.40;;;5.03;;
53959;SDS011;39866;48.638;-2.020;2023-10-13T10:23:25;16.63;;;5.40;;
53959;SDS011;39866;48.638;-2.020;2023-10-13T10:25:53;14.45;;;4.97;;
53959;SDS011;39866;48.638;-2.020;2023-10-13T10:28:38;16.58;;;5.50;;
53959;SDS011;39866;48.638;-2.020;2023-10-13T10:31:06;16.48;;;5.38;;
53959;SDS011;39866;48.638;-2.020;2023-10-13T10:33:37;18.85;;;5.68;;
53959;SDS011;39866;48.638;-2.020;2023-10-13T10:36:03;17.25;;;5.82;;
53959;SDS011;39866;48.638;-2.020;2023-10-13T10:38:30;14.95;;;5.30;;
53959;SDS011;39866;48.638;-2.020;2023-10-13T10:41:02;18.38;;;5.00;;
53959;SDS011;39866;48.638;-2.020;2023-10-13T10:43:34;17.67;;;5.55;;
53959;SDS011;39866;48.638;-2.020;2023-10-13T10:46:08;16.08;;;5.25;;
53959;SDS011;39866;48.638;-2.020;2023-10-13T10:48:38;17.95;;;5.57;;
53959;SDS011;39866;48.638;-2.020;2023-10-13T10:51:07;18.30;;;5.57;;
53959;SDS011;39866;48.638;-2.020;2023-10-13T10:54:00;18.40;;;5.45;;
53959;SDS011;39866;48.638;-2.020;2023-10-13T10:56:36;18.30;;;5.25;;
53959;SDS011;39866;48.638;-2.020;2023-10-13T10:59:05;14.10;;;4.82;;
53959;SDS011;39866;48.638;-2.020;2023-10-13T11:01:45;19.17;;;5.75;;
53959;SDS011;39866;48.638;-2.020;2023-10-13T11:04:16;13.80;;;4.60;;
53959;SDS011;39866;48.638;-2.020;2023-10-13T11:09:33;18.92;;;5.45;;
53959;SDS011;39866;48.638;-2.020;2023-10-13T11:14:31;17.98;;;5.20;;
53959;SDS011;39866;48.638;-2.020;2023-10-13T11:16:57;16.20;;;5.28;;
53959;SDS011;39866;48.638;-2.020;2023-10-13T11:19:39;19.75;;;5.72;;
53959;SDS011;39866;48.638;-2.020;2023-10-13T11:22:19;18.85;;;5.80;;
53959;SDS011;39866;48.638;-2.020;2023-10-13T11:24:57;16.67;;;6.00;;
53959;SDS011;39866;48.638;-2.020;2023-10-13T11:27:28;15.00;;;4.75;;
53959;SDS011;39866;48.638;-2.020;2023-10-13T11:30:10;12.10;;;4.05;;
53959;SDS011;39866;48.638;-2.020;2023-10-13T11:32:39;12.48;;;4.28;;
53959;SDS011;39866;48.638;-2.020;2023-10-13T11:35:08;13.23;;;4.40;;
53959;SDS011;39866;48.638;-2.020;2023-10-13T11:37:51;15.68;;;5.03;;
53959;SDS011;39866;48.638;-2.020;2023-10-13T11:40:38;9.15;;;3.60;;
53959;SDS011;39866;48.638;-2.020;2023-10-13T11:43:29;10.43;;;3.50;;
53959;SDS011;39866;48.638;-2.020;2023-10-13T11:46:37;11.80;;;3.63;;
53959;SDS011;39866;48.638;-2.020;2023-10-13T11:49:07;8.50;;;3.15;;
53959;SDS011;39866;48.638;-2.020;2023-10-13T11:51:33;10.90;;;3.33;;
53959;SDS011;39866;48.638;-2.020;2023-10-13T11:53:59;9.25;;;3.40;;
53959;SDS011;39866;48.638;-2.020;2023-10-13T11:56:24;10.35;;;3.55;;
53959;SDS011;39866;48.638;-2.020;2023-10-13T11:58:50;10.52;;;3.53;;
53959;SDS011;39866;48.638;-2.020;2023-10-13T12:01:16;8.32;;;3.00;;
53959;SDS011;39866;48.638;-2.020;2023-10-13T12:03:46;9.55;;;3.30;;
53959;SDS011;39866;48.638;-2.020;2023-10-13T12:06:32;9.68;;;3.58;;
53959;SDS011;39866;48.638;-2.020;2023-10-13T12:09:04;9.35;;;3.20;;
53959;SDS011;39866;48.638;-2.020;2023-10-13T12:11:40;8.27;;;3.10;;
53959;SDS011;39866;48.638;-2.020;2023-10-13T12:14:09;10.73;;;3.40;;
53959;SDS011;39866;48.638;-2.020;2023-10-13T12:16:54;11.52;;;3.83;;
53959;SDS011;39866;48.638;-2.020;2023-10-13T12:19:21;10.32;;;3.47;;
53959;SDS011;39866;48.638;-2.020;2023-10-13T12:21:54;11.55;;;3.95;;
53959;SDS011;39866;48.638;-2.020;2023-10-13T12:24:23;12.60;;;4.10;;
53959;SDS011;39866;48.638;-2.020;2023-10-13T12:29:27;10.52;;;3.53;;
53959;SDS011;39866;48.638;-2.020;2023-10-13T12:31:57;13.95;;;3.95;;
53959;SDS011;39866;48.638;-2.020;2023-10-13T12:34:37;13.80;;;3.83;;
53959;SDS011;39866;48.638;-2.020;2023-10-13T12:37:22;15.63;;;4.07;;
53959;SDS011;39866;48.638;-2.020;2023-10-13T12:40:05;13.38;;;3.28;;
53959;SDS011;39866;48.638;-2.020;2023-10-13T12:42:50;5.90;;;2.28;;
53959;SDS011;39866;48.638;-2.020;2023-10-13T12:45:44;8.52;;;2.53;;
53959;SDS011;39866;48.638;-2.020;2023-10-13T12:48:32;7.85;;;2.30;;
53959;SDS011;39866;48.638;-2.020;2023-10-13T12:51:17;6.35;;;2.08;;
53959;SDS011;39866;48.638;-2.020;2023-10-13T12:56:13;7.47;;;2.10;;
53959;SDS011;39866;48.638;-2.020;2023-10-13T12:58:38;5.30;;;1.70;;
53959;SDS011;39866;48.638;-2.020;2023-10-13T13:01:04;4.88;;;1.55;;
53959;SDS011;39866;48.638;-2.020;2023-10-13T13:03:31;7.00;;;1.98;;
53959;SDS011;39866;48.638;-2.020;2023-10-13T13:05:57;4.65;;;1.67;;
53959;SDS011;39866;48.638;-2.020;2023-10-13T13:08:23;4.70;;;1.67;;
53959;SDS011;39866;48.638;-2.020;2023-10-13T13:10:48;6.13;;;1.90;;
53959;SDS011;39866;48.638;-2.020;2023-10-13T13:13:14;7.22;;;1.95;;
53959;SDS011;39866;48.638;-2.020;2023-10-13T13:15:41;4.93;;;1.98;;
53959;SDS011;39866;48.638;-2.020;2023-10-13T13:18:07;7.68;;;2.00;;
53959;SDS011;39866;48.638;-2.020;2023-10-13T13:20:37;5.93;;;1.90;;
53959;SDS011;39866;48.638;-2.020;2023-10-13T13:23:04;4.57;;;1.70;;
53959;SDS011;39866;48.638;-2.020;2023-10-13T13:25:30;6.90;;;2.10;;
53959;SDS011;39866;48.638;-2.020;2023-10-13T13:27:58;7.47;;;2.28;;
53959;SDS011;39866;48.638;-2.020;2023-10-13T13:30:29;6.13;;;2.00;;
53959;SDS011;39866;48.638;-2.020;2023-10-13T13:32:59;8.15;;;2.40;;
53959;SDS011;39866;48.638;-2.020;2023-10-13T13:35:29;8.50;;;2.38;;
53959;SDS011;39866;48.638;-2.020;2023-10-13T13:37:59;9.20;;;2.78;;
53959;SDS011;39866;48.638;-2.020;2023-10-13T13:40:36;7.68;;;2.70;;
53959;SDS011;39866;48.638;-2.020;2023-10-13T13:43:02;10.50;;;2.80;;
53959;SDS011;39866;48.638;-2.020;2023-10-13T13:45:27;8.50;;;2.58;;
53959;SDS011;39866;48.638;-2.020;2023-10-13T13:47:53;7.78;;;2.55;;
53959;SDS011;39866;48.638;-2.020;2023-10-13T13:50:22;10.38;;;2.90;;
53959;SDS011;39866;48.638;-2.020;2023-10-13T13:52:55;8.55;;;2.75;;
53959;SDS011;39866;48.638;-2.020;2023-10-13T13:55:22;10.60;;;3.08;;
53959;SDS011;39866;48.638;-2.020;2023-10-13T13:57:48;10.88;;;3.38;;
53959;SDS011;39866;48.638;-2.020;2023-10-13T14:00:15;8.32;;;2.97;;
53959;SDS011;39866;48.638;-2.020;2023-10-13T14:02:43;10.25;;;2.78;;
53959;SDS011;39866;48.638;-2.020;2023-10-13T14:05:15;10.77;;;3.20;;
53959;SDS011;39866;48.638;-2.020;2023-10-13T14:07:42;11.77;;;3.53;;
53959;SDS011;39866;48.638;-2.020;2023-10-13T14:10:13;15.40;;;3.50;;
53959;SDS011;39866;48.638;-2.020;2023-10-13T14:12:56;13.65;;;3.40;;
53959;SDS011;39866;48.638;-2.020;2023-10-13T14:15:31;11.20;;;3.55;;
53959;SDS011;39866;48.638;-2.020;2023-10-13T14:18:04;11.63;;;3.15;;
53959;SDS011;39866;48.638;-2.020;2023-10-13T14:20:31;10.15;;;3.03;;
53959;SDS011;39866;48.638;-2.020;2023-10-13T14:22:57;10.98;;;3.72;;
53959;SDS011;39866;48.638;-2.020;2023-10-13T14:25:22;11.20;;;3.45;;
53959;SDS011;39866;48.638;-2.020;2023-10-13T14:27:53;13.70;;;3.50;;
53959;SDS011;39866;48.638;-2.020;2023-10-13T14:30:19;15.00;;;3.65;;
53959;SDS011;39866;48.638;-2.020;2023-10-13T14:32:44;13.82;;;3.42;;
53959;SDS011;39866;48.638;-2.020;2023-10-13T14:35:10;13.52;;;4.10;;
53959;SDS011;39866;48.638;-2.020;2023-10-13T14:37:42;12.68;;;3.88;;
53959;SDS011;39866;48.638;-2.020;2023-10-13T14:40:07;14.45;;;3.33;;
53959;SDS011;39866;48.638;-2.020;2023-10-13T14:42:40;13.30;;;4.30;;
53959;SDS011;39866;48.638;-2.020;2023-10-13T14:45:06;14.52;;;3.85;;
53959;SDS011;39866;48.638;-2.020;2023-10-13T14:47:38;12.85;;;3.55;;
53959;SDS011;39866;48.638;-2.020;2023-10-13T14:50:06;13.20;;;3.80;;
53959;SDS011;39866;48.638;-2.020;2023-10-13T14:52:33;14.32;;;3.90;;
53959;SDS011;39866;48.638;-2.020;2023-10-13T14:54:59;16.48;;;4.00;;
53959;SDS011;39866;48.638;-2.020;2023-10-13T14:57:24;10.50;;;3.40;;
53959;SDS011;39866;48.638;-2.020;2023-10-13T14:59:54;16.70;;;4.28;;
53959;SDS011;39866;48.638;-2.020;2023-10-13T15:02:20;17.85;;;4.05;;
53959;SDS011;39866;48.638;-2.020;2023-10-13T15:04:49;15.85;;;4.07;;
53959;SDS011;39866;48.638;-2.020;2023-10-13T15:07:15;13.10;;;3.67;;
53959;SDS011;39866;48.638;-2.020;2023-10-13T15:09:42;12.35;;;3.85;;
53959;SDS011;39866;48.638;-2.020;2023-10-13T15:12:08;14.13;;;3.97;;
53959;SDS011;39866;48.638;-2.020;2023-10-13T15:14:36;16.17;;;3.92;;
53959;SDS011;39866;48.638;-2.020;2023-10-13T15:17:07;15.75;;;4.03;;
53959;SDS011;39866;48.638;-2.020;2023-10-13T15:19:34;14.88;;;4.10;;
53959;SDS011;39866;48.638;-2.020;2023-10-13T15:22:08;13.57;;;3.80;;
53959;SDS011;39866;48.638;-2.020;2023-10-13T15:24:46;20.25;;;4.15;;
53959;SDS011;39866;48.638;-2.020;2023-10-13T15:27:24;19.52;;;4.50;;
53959;SDS011;39866;48.638;-2.020;2023-10-13T15:29:53;14.50;;;3.55;;
53959;SDS011;39866;48.638;-2.020;2023-10-13T15:32:19;15.00;;;4.22;;
53959;SDS011;39866;48.638;-2.020;2023-10-13T15:37:29;13.70;;;3.85;;
53959;SDS011;39866;48.638;-2.020;2023-10-13T15:39:54;13.15;;;3.97;;
53959;SDS011;39866;48.638;-2.020;2023-10-13T15:42:20;12.65;;;3.63;;
53959;SDS011;39866;48.638;-2.020;2023-10-13T15:44:46;13.35;;;3.83;;
53959;SDS011;39866;48.638;-2.020;2023-10-13T15:47:11;14.65;;;3.92;;
53959;SDS011;39866;48.638;-2.020;2023-10-13T15:49:37;13.25;;;4.13;;